createdAt,value
2022-11-24T00:01:18.059Z,7.00
2022-11-24T00:03:46.888Z,7.00
2022-11-24T00:06:16.166Z,7.00
2022-11-24T00:08:44.889Z,7.00
2022-11-24T00:11:15.354Z,7.00
2022-11-24T00:13:42.687Z,7.00
2022-11-24T00:16:18.665Z,7.00
2022-11-24T00:18:47.817Z,7.00
2022-11-24T00:21:15.697Z,7.00
2022-11-24T00:23:43.035Z,7.00
2022-11-24T00:26:18.603Z,7.00
2022-11-24T00:28:47.641Z,7.00
2022-11-24T00:31:35.872Z,7.00
2022-11-24T00:34:05.173Z,7.00
2022-11-24T00:36:34.926Z,7.00
2022-11-24T00:39:04.634Z,7.00
2022-11-24T00:41:32.607Z,7.00
2022-11-24T00:44:00.222Z,7.00
2022-11-24T00:46:28.298Z,7.00
2022-11-24T00:48:55.323Z,7.00
2022-11-24T00:51:26.272Z,7.00
2022-11-24T00:53:53.239Z,7.00
2022-11-24T00:56:20.499Z,7.00
2022-11-24T00:58:47.126Z,7.10
2022-11-24T01:01:20.512Z,7.10
2022-11-24T01:03:47.359Z,7.10
2022-11-24T01:06:17.744Z,7.30
2022-11-24T01:08:45.246Z,7.30
2022-11-24T01:11:18.788Z,7.30
2022-11-24T01:13:47.151Z,7.40
2022-11-24T01:16:26.321Z,7.40
2022-11-24T01:18:54.251Z,7.40
2022-11-24T01:21:22.697Z,7.50
2022-11-24T01:23:49.985Z,7.50
2022-11-24T01:26:20.209Z,7.50
2022-11-24T01:28:47.916Z,7.40
2022-11-24T01:31:17.044Z,7.40
2022-11-24T01:33:43.673Z,7.40
2022-11-24T01:36:10.728Z,7.40
2022-11-24T01:38:37.962Z,7.30
2022-11-24T01:41:15.361Z,7.30
2022-11-24T01:43:44.236Z,7.30
2022-11-24T01:46:22.822Z,7.20
2022-11-24T01:48:59.361Z,7.20
2022-11-24T01:51:31.333Z,7.10
2022-11-24T01:54:02.843Z,7.10
2022-11-24T01:56:31.646Z,7.10
2022-11-24T01:59:01.285Z,7.00
2022-11-24T02:01:29.465Z,7.00
2022-11-24T02:03:56.874Z,7.00
2022-11-24T02:06:29.426Z,7.00
2022-11-24T02:09:05.783Z,7.00
2022-11-24T02:11:38.827Z,7.00
2022-11-24T02:14:06.942Z,7.10
2022-11-24T02:16:38.831Z,7.10
2022-11-24T02:19:18.380Z,7.10
2022-11-24T02:21:45.671Z,7.20
2022-11-24T02:24:24.728Z,7.20
2022-11-24T02:26:52.655Z,7.30
2022-11-24T02:29:20.739Z,7.40
2022-11-24T02:31:55.350Z,7.50
2022-11-24T02:34:21.975Z,7.60
2022-11-24T02:36:49.199Z,7.60
2022-11-24T02:39:16.114Z,7.70
2022-11-24T02:41:48.969Z,7.70
2022-11-24T02:44:19.595Z,7.70
2022-11-24T02:46:46.839Z,7.70
2022-11-24T02:49:13.432Z,7.80
2022-11-24T02:51:41.036Z,7.80
2022-11-24T02:54:07.782Z,7.70
2022-11-24T02:56:35.077Z,7.70
2022-11-24T02:59:01.626Z,7.70
2022-11-24T03:01:28.919Z,7.60
2022-11-24T03:03:55.530Z,7.50
2022-11-24T03:06:22.439Z,7.50
2022-11-24T03:08:49.665Z,7.50
2022-11-24T03:11:16.262Z,7.50
2022-11-24T03:13:43.637Z,7.50
2022-11-24T03:16:10.586Z,7.50
2022-11-24T03:18:37.886Z,7.50
2022-11-24T03:21:04.738Z,7.50
2022-11-24T03:23:32.029Z,7.60
2022-11-24T03:26:10.484Z,7.60
2022-11-24T03:28:37.768Z,7.60
2022-11-24T03:31:04.729Z,7.60
2022-11-24T03:33:32.004Z,7.70
2022-11-24T03:35:58.691Z,7.70
2022-11-24T03:38:26.040Z,7.70
2022-11-24T03:40:52.755Z,7.70
2022-11-24T03:43:20.120Z,7.70
2022-11-24T03:45:47.838Z,7.80
2022-11-24T03:48:16.919Z,7.80
2022-11-24T03:50:43.975Z,7.80
2022-11-24T03:53:11.281Z,7.90
2022-11-24T03:55:37.876Z,8.00
2022-11-24T03:58:05.132Z,8.00
2022-11-24T04:00:31.783Z,8.10
2022-11-24T04:02:59.193Z,8.10
2022-11-24T04:05:25.901Z,8.10
2022-11-24T04:07:57.250Z,8.10
2022-11-24T04:10:25.613Z,8.10
2022-11-24T04:12:52.241Z,8.10
2022-11-24T04:15:20.261Z,8.10
2022-11-24T04:17:49.360Z,8.10
2022-11-24T04:20:17.848Z,8.00
2022-11-24T04:22:44.489Z,8.00
2022-11-24T04:25:12.115Z,8.00
2022-11-24T04:27:39.289Z,8.00
2022-11-24T04:30:07.663Z,8.00
2022-11-24T04:32:34.271Z,8.00
2022-11-24T04:35:01.570Z,8.00
2022-11-24T04:37:28.181Z,7.90
2022-11-24T04:39:55.566Z,7.90
2022-11-24T04:42:22.171Z,7.90
2022-11-24T04:44:49.442Z,7.90
2022-11-24T04:47:22.303Z,7.90
2022-11-24T04:49:50.139Z,7.90
2022-11-24T04:52:19.446Z,7.90
2022-11-24T04:54:47.343Z,7.80
2022-11-24T04:57:21.729Z,7.80
2022-11-24T04:59:50.523Z,7.80
2022-11-24T05:02:17.499Z,7.80
2022-11-24T05:04:45.081Z,7.90
2022-11-24T05:07:17.934Z,8.00
2022-11-24T05:10:05.828Z,8.00
2022-11-24T05:12:32.785Z,8.10
2022-11-24T05:15:04.536Z,8.10
2022-11-24T05:17:33.232Z,8.10
2022-11-24T05:20:00.818Z,8.10
2022-11-24T05:22:28.968Z,8.10
2022-11-24T05:24:56.405Z,8.10
2022-11-24T05:27:23.192Z,8.10
2022-11-24T05:29:50.430Z,8.00
2022-11-24T05:32:17.034Z,8.00
2022-11-24T05:34:44.284Z,8.00
2022-11-24T05:37:11.018Z,7.90
2022-11-24T05:39:38.380Z,7.90
2022-11-24T05:42:25.764Z,7.90
2022-11-24T05:44:53.997Z,7.90
2022-11-24T05:47:21.390Z,7.90
2022-11-24T05:49:48.457Z,7.90
2022-11-24T05:52:16.188Z,7.90
2022-11-24T05:54:43.637Z,7.90
2022-11-24T05:57:10.261Z,7.80
2022-11-24T05:59:37.550Z,7.80
2022-11-24T06:02:04.279Z,7.80
2022-11-24T06:04:32.626Z,7.80
2022-11-24T06:06:59.586Z,7.70
2022-11-24T06:09:27.192Z,7.70
2022-11-24T06:11:53.847Z,7.60
2022-11-24T06:14:21.243Z,7.60
2022-11-24T06:16:47.879Z,7.60
2022-11-24T06:19:15.165Z,7.50
2022-11-24T06:21:41.778Z,7.40
2022-11-24T06:24:08.814Z,7.40
2022-11-24T06:26:36.116Z,7.30
2022-11-24T06:29:03.090Z,7.30
2022-11-24T06:31:30.098Z,7.30
2022-11-24T06:33:56.696Z,7.30
2022-11-24T06:36:24.051Z,7.20
2022-11-24T06:38:51.012Z,7.30
2022-11-24T06:41:18.464Z,7.20
2022-11-24T06:43:45.292Z,7.20
2022-11-24T06:46:13.230Z,7.10
2022-11-24T06:48:40.070Z,7.10
2022-11-24T06:51:10.515Z,7.10
2022-11-24T06:53:38.780Z,7.10
2022-11-24T06:56:16.243Z,7.10
2022-11-24T06:58:45.883Z,7.20
2022-11-24T07:01:21.781Z,7.20
2022-11-24T07:03:49.505Z,7.30
2022-11-24T07:06:17.462Z,7.40
2022-11-24T07:08:44.512Z,7.50
2022-11-24T07:11:15.766Z,7.50
2022-11-24T07:13:43.195Z,7.60
2022-11-24T07:16:18.646Z,7.60
2022-11-24T07:18:46.486Z,7.60
2022-11-24T07:21:14.413Z,7.60
2022-11-24T07:23:41.053Z,7.60
2022-11-24T07:26:09.927Z,7.70
2022-11-24T07:28:36.997Z,7.60
2022-11-24T07:31:13.243Z,7.70
2022-11-24T07:33:40.502Z,7.70
2022-11-24T07:36:09.176Z,7.70
2022-11-24T07:38:36.286Z,7.70
2022-11-24T07:41:06.082Z,7.70
2022-11-24T07:43:34.094Z,7.70
2022-11-24T07:46:01.910Z,7.70
2022-11-24T07:48:28.548Z,7.70
2022-11-24T07:50:58.817Z,7.70
2022-11-24T07:53:25.399Z,7.70
2022-11-24T07:55:58.340Z,7.80
2022-11-24T07:58:30.366Z,7.80
2022-11-24T08:00:59.667Z,7.80
2022-11-24T08:03:26.398Z,7.90
2022-11-24T08:08:46.485Z,8.00
2022-11-24T08:11:17.670Z,8.00
2022-11-24T08:13:45.493Z,8.00
2022-11-24T08:16:15.925Z,8.00
2022-11-24T08:18:44.304Z,8.00
2022-11-24T08:21:13.748Z,8.00
2022-11-24T08:23:41.530Z,8.00
2022-11-24T08:26:15.777Z,8.10
2022-11-24T08:28:43.236Z,8.00
2022-11-24T08:31:15.957Z,8.00
2022-11-24T08:33:43.370Z,8.00
2022-11-24T08:36:12.441Z,8.00
2022-11-24T08:38:40.327Z,8.00
2022-11-24T08:41:13.144Z,8.00
2022-11-24T08:43:40.443Z,8.00
2022-11-24T08:46:09.928Z,8.10
2022-11-24T08:48:37.959Z,8.30
2022-11-24T08:51:10.717Z,8.30
2022-11-24T08:53:38.267Z,8.30
2022-11-24T08:56:06.128Z,8.40
2022-11-24T08:58:33.699Z,8.40
2022-11-24T09:01:12.169Z,8.40
2022-11-24T09:03:43.524Z,8.30
2022-11-24T09:06:16.035Z,8.20
2022-11-24T09:08:43.379Z,8.30
2022-11-24T09:11:12.972Z,8.40
2022-11-24T09:13:40.857Z,8.60
2022-11-24T09:16:14.193Z,8.70
2022-11-24T09:18:41.198Z,8.80
2022-11-24T09:21:10.552Z,8.90
2022-11-24T09:23:38.544Z,8.90
2022-11-24T09:26:14.111Z,8.90
2022-11-24T09:28:41.536Z,8.90
2022-11-24T09:31:10.537Z,8.90
2022-11-24T09:33:38.859Z,8.80
2022-11-24T09:36:06.420Z,8.80
2022-11-24T09:38:33.703Z,8.80
2022-11-24T09:41:23.213Z,8.90
2022-11-24T09:44:08.781Z,8.90
2022-11-24T09:46:41.319Z,9.00
2022-11-24T09:49:15.676Z,9.00
2022-11-24T09:51:46.918Z,9.10
2022-11-24T09:54:18.721Z,9.20
2022-11-24T09:56:46.665Z,9.20
2022-11-24T09:59:20.785Z,9.20
2022-11-24T10:01:48.884Z,9.20
2022-11-24T10:04:21.768Z,9.30
2022-11-24T10:07:11.183Z,9.30
2022-11-24T10:10:19.770Z,9.30
2022-11-24T10:13:25.020Z,9.30
2022-11-24T10:16:22.692Z,9.30
2022-11-24T10:19:01.526Z,9.40
2022-11-24T10:21:48.472Z,9.50
2022-11-24T10:24:35.666Z,9.50
2022-11-24T10:27:17.206Z,9.60
2022-11-24T10:29:48.303Z,9.60
2022-11-24T10:32:28.287Z,9.70
2022-11-24T10:35:00.561Z,9.70
2022-11-24T10:37:39.251Z,9.70
2022-11-24T10:40:40.420Z,9.70
2022-11-24T10:43:01.943Z,9.70
2022-11-24T10:45:29.932Z,9.70
2022-11-24T10:47:57.700Z,9.70
2022-11-24T10:50:32.856Z,9.70
2022-11-24T10:53:08.629Z,9.80
2022-11-24T10:55:54.432Z,9.80
2022-11-24T10:58:29.532Z,9.80
2022-11-24T11:01:13.933Z,9.90
2022-11-24T11:03:48.561Z,9.90
2022-11-24T11:06:22.765Z,9.90
2022-11-24T11:08:49.693Z,9.90
2022-11-24T11:11:20.259Z,9.90
2022-11-24T11:14:02.943Z,10.00
2022-11-24T11:16:38.832Z,10.00
2022-11-24T11:19:47.990Z,10.00
2022-11-24T11:22:12.621Z,10.00
2022-11-24T11:24:41.424Z,10.00
2022-11-24T11:27:26.262Z,10.10
2022-11-24T11:35:39.490Z,10.20
2022-11-24T11:38:06.803Z,10.20
2022-11-24T11:40:35.423Z,10.20
2022-11-24T11:43:27.039Z,10.30
2022-11-24T11:46:05.335Z,10.30
2022-11-24T11:48:42.816Z,10.30
2022-11-24T11:51:26.105Z,10.30
2022-11-24T11:54:26.827Z,10.40
2022-11-24T11:57:26.459Z,10.40
2022-11-24T12:00:19.126Z,10.50
2022-11-24T12:03:23.213Z,10.50
2022-11-24T12:06:15.621Z,10.50
2022-11-24T12:09:20.286Z,10.50
2022-11-24T12:12:22.023Z,10.50
2022-11-24T12:15:10.241Z,10.50
2022-11-24T12:17:50.976Z,10.50
2022-11-24T12:20:39.485Z,10.50
2022-11-24T12:23:27.782Z,10.50
2022-11-24T12:26:35.014Z,10.50
2022-11-24T12:29:20.277Z,10.50
2022-11-24T12:32:11.708Z,10.60
2022-11-24T12:35:06.768Z,10.50
2022-11-24T12:37:53.229Z,10.60
2022-11-24T12:40:31.667Z,10.60
2022-11-24T12:43:29.404Z,10.60
2022-11-24T12:46:17.279Z,10.60
2022-11-24T12:49:09.208Z,10.60
2022-11-24T12:51:40.726Z,10.60
2022-11-24T12:54:13.382Z,10.70
2022-11-24T12:56:45.550Z,10.70
2022-11-24T12:59:45.533Z,10.70
2022-11-24T13:02:31.402Z,10.70
2022-11-24T13:05:13.823Z,10.70
2022-11-24T13:07:46.849Z,10.60
2022-11-24T13:10:54.225Z,10.70
2022-11-24T13:13:17.535Z,10.70
2022-11-24T13:16:28.517Z,10.80
2022-11-24T13:19:06.931Z,10.90
2022-11-24T13:21:48.011Z,10.90
2022-11-24T13:24:18.221Z,10.90
2022-11-24T13:27:16.965Z,10.80
2022-11-24T13:29:51.391Z,10.80
2022-11-24T13:32:21.186Z,10.70
2022-11-24T13:34:55.247Z,10.60
2022-11-24T13:37:29.028Z,10.60
2022-11-24T13:40:12.006Z,10.50
2022-11-24T13:42:57.454Z,10.50
2022-11-24T13:45:40.514Z,10.40
2022-11-24T13:48:20.083Z,10.40
2022-11-24T13:50:51.062Z,10.40
2022-11-24T13:53:31.829Z,10.30
2022-11-24T13:56:14.438Z,10.30
2022-11-24T13:58:46.069Z,10.20
2022-11-24T14:01:33.066Z,10.20
2022-11-24T14:04:30.982Z,10.20
2022-11-24T14:07:07.825Z,10.20
2022-11-24T14:09:45.442Z,10.20
2022-11-24T14:12:24.800Z,10.10
2022-11-24T14:14:55.818Z,10.10
2022-11-24T14:17:28.056Z,10.10
2022-11-24T14:19:57.060Z,10.10
2022-11-24T14:22:26.558Z,10.00
2022-11-24T14:24:59.508Z,10.10
2022-11-24T14:27:44.388Z,10.10
2022-11-24T14:30:13.644Z,10.00
2022-11-24T14:32:40.673Z,10.00
2022-11-24T14:35:30.666Z,10.00
2022-11-24T14:37:58.281Z,9.90
2022-11-24T14:40:37.452Z,9.80
2022-11-24T14:43:06.596Z,9.80
2022-11-24T14:45:34.754Z,9.70
2022-11-24T14:48:01.653Z,9.70
2022-11-24T14:50:29.072Z,9.60
2022-11-24T14:52:57.754Z,9.60
2022-11-24T14:55:31.793Z,9.50
2022-11-24T14:57:59.642Z,9.40
2022-11-24T15:00:31.460Z,9.30
2022-11-24T15:03:01.037Z,9.20
2022-11-24T15:05:55.769Z,9.10
2022-11-24T15:08:25.398Z,9.00
2022-11-24T15:11:05.886Z,8.90
2022-11-24T15:13:38.184Z,8.80
2022-11-24T15:16:15.060Z,8.70
2022-11-24T15:18:45.592Z,8.70
2022-11-24T15:21:18.971Z,8.60
2022-11-24T15:24:06.415Z,8.50
2022-11-24T15:26:38.452Z,8.40
2022-11-24T15:29:08.752Z,8.30
2022-11-24T15:31:36.155Z,8.30
2022-11-24T15:34:02.916Z,8.20
2022-11-24T15:36:29.622Z,8.20
2022-11-24T15:38:56.291Z,8.10
2022-11-24T15:41:29.005Z,8.10
2022-11-24T15:43:59.065Z,8.00
2022-11-24T15:46:27.456Z,8.00
2022-11-24T15:48:55.273Z,8.00
2022-11-24T15:51:25.394Z,7.90
2022-11-24T15:54:00.301Z,7.80
2022-11-24T15:56:34.127Z,7.70
2022-11-24T15:59:01.663Z,7.70
2022-11-24T16:01:33.968Z,7.60
2022-11-24T16:04:01.750Z,7.60
2022-11-24T16:06:28.463Z,7.60
2022-11-24T16:08:55.397Z,7.50
2022-11-24T16:11:23.035Z,7.40
2022-11-24T16:13:53.398Z,7.40
2022-11-24T16:16:22.975Z,7.30
2022-11-24T16:18:49.883Z,7.20
2022-11-24T16:21:17.256Z,7.20
2022-11-24T16:23:44.150Z,7.10
2022-11-24T16:26:11.117Z,7.10
2022-11-24T16:28:37.853Z,7.00
2022-11-24T16:31:05.001Z,7.00
2022-11-24T16:33:31.877Z,6.90
2022-11-24T16:35:59.395Z,6.90
2022-11-24T16:38:26.041Z,6.80
2022-11-24T16:40:54.255Z,6.80
2022-11-24T16:43:21.262Z,6.70
2022-11-24T16:46:20.846Z,6.70
2022-11-24T16:48:50.070Z,6.60
2022-11-24T16:51:18.993Z,6.60
2022-11-24T16:53:45.949Z,6.60
2022-11-24T16:56:14.552Z,6.60
2022-11-24T16:58:41.947Z,6.50
2022-11-24T17:01:11.247Z,6.50
2022-11-24T17:03:38.598Z,6.40
2022-11-24T17:06:07.666Z,6.40
2022-11-24T17:08:36.282Z,6.30
2022-11-24T17:11:10.627Z,6.30
2022-11-24T17:13:38.059Z,6.30
2022-11-24T17:16:12.012Z,6.30
2022-11-24T17:18:39.501Z,6.40
2022-11-24T17:21:12.319Z,6.40
2022-11-24T17:23:39.147Z,6.50
2022-11-24T17:26:09.868Z,6.50
2022-11-24T17:28:37.236Z,6.60
2022-11-24T17:31:28.389Z,6.60
2022-11-24T17:33:56.712Z,6.60
2022-11-24T17:36:23.991Z,6.70
2022-11-24T17:38:50.892Z,6.70
2022-11-24T17:41:19.160Z,6.70
2022-11-24T17:43:53.389Z,6.80
2022-11-24T17:46:20.204Z,6.80
2022-11-24T17:48:47.233Z,6.80
2022-11-24T17:51:16.299Z,6.80
2022-11-24T17:53:45.282Z,6.70
2022-11-24T17:56:14.892Z,6.70
2022-11-24T17:58:43.366Z,6.70
2022-11-24T18:01:12.278Z,6.70
2022-11-24T18:03:40.056Z,6.70
2022-11-24T18:06:18.271Z,6.60
2022-11-24T18:08:46.781Z,6.60
2022-11-24T18:11:30.164Z,6.60
2022-11-24T18:14:02.382Z,6.60
2022-11-24T18:16:32.355Z,6.60
2022-11-24T18:19:08.761Z,6.60
2022-11-24T18:21:41.544Z,6.60
2022-11-24T18:24:09.819Z,6.60
2022-11-24T18:26:37.810Z,6.60
2022-11-24T18:29:04.635Z,6.60
2022-11-24T18:31:34.423Z,6.60
2022-11-24T18:34:02.258Z,6.60
2022-11-24T18:36:30.774Z,6.60
2022-11-24T18:39:05.830Z,6.60
2022-11-24T18:41:33.095Z,6.60
2022-11-24T18:44:02.842Z,6.60
2022-11-24T18:46:30.149Z,6.60
2022-11-24T18:48:56.811Z,6.60
2022-11-24T18:51:24.138Z,6.60
2022-11-24T18:53:57.829Z,6.60
2022-11-24T18:56:25.180Z,6.70
2022-11-24T18:58:53.827Z,6.60
2022-11-24T19:01:29.200Z,6.70
2022-11-24T19:03:57.980Z,6.70
2022-11-24T19:06:34.029Z,6.70
2022-11-24T19:09:12.960Z,6.70
2022-11-24T19:11:42.654Z,6.60
2022-11-24T19:14:13.189Z,6.50
2022-11-24T19:16:40.966Z,6.50
2022-11-24T19:19:08.565Z,6.50
2022-11-24T19:21:37.781Z,6.50
2022-11-24T19:24:06.018Z,6.50
2022-11-24T19:26:36.857Z,6.40
2022-11-24T19:29:04.543Z,6.40
2022-11-24T19:31:32.254Z,6.30
2022-11-24T19:33:59.512Z,6.30
2022-11-24T19:36:26.696Z,6.30
2022-11-24T19:38:55.609Z,6.30
2022-11-24T19:41:26.316Z,6.20
2022-11-24T19:43:53.412Z,6.10
2022-11-24T19:46:21.853Z,6.00
2022-11-24T19:48:50.702Z,6.00
2022-11-24T19:51:25.654Z,5.90
2022-11-24T19:53:53.072Z,5.90
2022-11-24T19:56:22.143Z,5.80
2022-11-24T19:58:49.723Z,5.80
2022-11-24T20:01:17.685Z,5.80
2022-11-24T20:03:51.431Z,5.80
2022-11-24T20:06:18.412Z,5.90
2022-11-24T20:08:45.101Z,5.90
2022-11-24T20:11:14.823Z,5.90
2022-11-24T20:13:43.989Z,5.80
2022-11-24T20:16:16.262Z,5.80
2022-11-24T20:18:44.996Z,5.80
2022-11-24T20:21:18.435Z,5.80
2022-11-24T20:23:46.896Z,5.70
2022-11-24T20:26:19.902Z,5.70
2022-11-24T20:28:47.232Z,5.60
2022-11-24T20:31:16.788Z,5.60
2022-11-24T20:33:44.959Z,5.60
2022-11-24T20:36:14.277Z,5.60
2022-11-24T20:38:42.653Z,5.60
2022-11-24T20:41:20.856Z,5.60
2022-11-24T20:43:49.369Z,5.50
2022-11-24T20:46:22.709Z,5.50
2022-11-24T20:48:50.072Z,5.50
2022-11-24T20:51:23.825Z,5.40
2022-11-24T20:53:53.154Z,5.40
2022-11-24T20:56:23.345Z,5.40
2022-11-24T20:58:53.561Z,5.40
2022-11-24T21:01:26.107Z,5.30
2022-11-24T21:03:58.405Z,5.30
2022-11-24T21:06:28.180Z,5.40
2022-11-24T21:09:00.393Z,5.30
2022-11-24T21:11:29.618Z,5.30
2022-11-24T21:13:57.391Z,5.30
2022-11-24T21:16:27.782Z,5.40
2022-11-24T21:19:00.093Z,5.40
2022-11-24T21:21:34.717Z,5.40
2022-11-24T21:24:15.102Z,5.40
2022-11-24T21:26:43.498Z,5.40
2022-11-24T21:29:14.131Z,5.40
2022-11-24T21:31:42.064Z,5.40
2022-11-24T21:34:09.324Z,5.30
2022-11-24T21:36:40.260Z,5.30
2022-11-24T21:39:07.203Z,5.30
2022-11-24T21:41:34.532Z,5.30
2022-11-24T21:44:01.185Z,5.40
2022-11-24T21:46:30.255Z,5.50
2022-11-24T21:48:56.913Z,5.60
2022-11-24T21:51:24.179Z,5.80
2022-11-24T21:53:50.816Z,5.80
2022-11-24T21:56:20.642Z,5.90
2022-11-24T21:58:49.906Z,6.00
2022-11-24T22:01:19.412Z,6.10
2022-11-24T22:03:46.754Z,6.10
2022-11-24T22:06:15.537Z,6.20
2022-11-24T22:08:42.350Z,6.20
2022-11-24T22:11:18.206Z,6.30
2022-11-24T22:13:45.716Z,6.40
2022-11-24T22:16:18.936Z,6.40
2022-11-24T22:18:45.949Z,6.40
2022-11-24T22:21:15.813Z,6.40
2022-11-24T22:23:43.170Z,6.50
2022-11-24T22:26:19.484Z,6.50
2022-11-24T22:28:47.142Z,6.60
2022-11-24T22:31:17.742Z,6.60
2022-11-24T22:33:45.318Z,6.60
2022-11-24T22:36:14.286Z,6.60
2022-11-24T22:38:41.592Z,6.60
2022-11-24T22:41:17.570Z,6.60
2022-11-24T22:43:45.337Z,6.60
2022-11-24T22:46:18.006Z,6.60
2022-11-24T22:48:46.161Z,6.50
2022-11-24T22:51:18.654Z,6.50
2022-11-24T22:53:48.462Z,6.40
2022-11-24T22:56:17.020Z,6.40
2022-11-24T22:58:43.951Z,6.30
2022-11-24T23:01:16.923Z,6.20
2022-11-24T23:03:44.503Z,6.20
2022-11-24T23:06:14.623Z,6.20
2022-11-24T23:08:41.945Z,6.10
2022-11-24T23:11:12.051Z,6.10
2022-11-24T23:13:39.506Z,6.20
2022-11-24T23:16:09.995Z,6.20
2022-11-24T23:18:36.833Z,6.30
2022-11-24T23:21:10.372Z,6.20
2022-11-24T23:23:37.084Z,6.20
2022-11-24T23:26:06.901Z,6.30
2022-11-24T23:28:33.799Z,6.30
2022-11-24T23:31:06.139Z,6.30
2022-11-24T23:33:33.421Z,6.30
2022-11-24T23:36:06.257Z,6.30
2022-11-24T23:38:32.963Z,6.30
2022-11-24T23:41:04.284Z,6.30
2022-11-24T23:43:34.831Z,6.30
2022-11-24T23:46:04.164Z,6.30
2022-11-24T23:48:31.302Z,6.30
2022-11-24T23:51:04.225Z,6.30
2022-11-24T23:53:32.614Z,6.30
2022-11-24T23:56:00.451Z,6.30
2022-11-24T23:58:27.658Z,6.20
